Kerman, Kerman Airport (OIKK)

NameKerman Airport
CityKerman
CountryIran (Islamic Republic of)
ICAOOIKK
IATAKER
Altitude1750 m
CoordinatesGoogle Map
Live Air TrafficLiveATC.net
METAROIKK 130450Z 10004KT CAVOK 05/M21 Q1026 A3031
2019-11-13 04:50:00 Wind: East (100°) 2.06 m/s - Visibility: > 10000 m - Weather: CAVOK - Temperature: 5 °C - Dew point: -21 °C - Humidity: 13.3% - Pressure: 1026.41 hPa
Statistics

The table below shows the detailed information of all flights to/from Kerman, Kerman Airport (OIKK).